createdAt,value
2022-08-31T00:01:40.590Z,24.57
2022-08-31T00:04:10.686Z,24.69
2022-08-31T00:06:38.759Z,24.77
2022-08-31T00:09:07.592Z,24.80
2022-08-31T00:11:37.510Z,24.85
2022-08-31T00:14:10.811Z,24.71
2022-08-31T00:16:43.816Z,24.80
2022-08-31T00:19:13.012Z,24.88
2022-08-31T00:21:44.876Z,24.78
2022-08-31T00:24:14.499Z,24.58
2022-08-31T00:26:42.710Z,24.40
2022-08-31T00:29:11.899Z,24.39
2022-08-31T00:31:39.526Z,24.54
2022-08-31T00:34:08.574Z,24.58
2022-08-31T00:36:36.480Z,24.50
2022-08-31T00:39:06.428Z,24.57
2022-08-31T00:41:37.864Z,24.46
2022-08-31T00:44:08.727Z,24.29
2022-08-31T00:46:40.274Z,24.31
2022-08-31T00:49:09.825Z,24.31
2022-08-31T00:51:43.973Z,24.15
2022-08-31T00:54:14.291Z,24.17
2022-08-31T00:56:44.909Z,24.08
2022-08-31T00:59:15.224Z,24.01
2022-08-31T01:01:42.925Z,23.85
2022-08-31T01:04:11.177Z,23.91
2022-08-31T01:06:40.122Z,23.88
2022-08-31T01:09:09.408Z,23.84
2022-08-31T01:11:40.038Z,23.86
2022-08-31T01:14:08.789Z,23.72
2022-08-31T01:16:46.208Z,23.75
2022-08-31T01:20:06.998Z,23.67
2022-08-31T01:22:48.828Z,23.53
2022-08-31T01:25:16.587Z,23.52
2022-08-31T01:27:45.257Z,23.47
2022-08-31T01:30:22.252Z,23.59
2022-08-31T01:32:50.089Z,23.63
2022-08-31T01:35:20.000Z,23.49
2022-08-31T01:37:48.318Z,23.43
2022-08-31T01:40:17.251Z,23.42
2022-08-31T01:42:44.971Z,23.37
2022-08-31T01:45:13.333Z,23.38
2022-08-31T01:47:41.573Z,23.37
2022-08-31T01:50:09.455Z,23.34
2022-08-31T01:52:38.733Z,23.26
2022-08-31T01:55:08.545Z,23.26
2022-08-31T01:57:36.681Z,23.29
2022-08-31T02:00:31.346Z,23.33
2022-08-31T02:03:01.884Z,23.36
2022-08-31T02:05:30.024Z,23.33
2022-08-31T02:07:58.002Z,23.38
2022-08-31T02:10:25.672Z,23.29
2022-08-31T02:12:54.064Z,23.14
2022-08-31T02:15:31.425Z,23.14
2022-08-31T02:17:59.851Z,23.28
2022-08-31T02:20:28.718Z,23.29
2022-08-31T02:22:56.774Z,23.20
2022-08-31T02:25:24.631Z,23.14
2022-08-31T02:27:52.961Z,23.19
2022-08-31T02:30:20.778Z,23.17
2022-08-31T02:32:48.354Z,23.17
2022-08-31T02:35:15.944Z,23.02
2022-08-31T02:37:43.895Z,23.04
2022-08-31T02:40:13.515Z,22.93
2022-08-31T02:42:52.743Z,22.96
2022-08-31T02:45:24.227Z,22.89
2022-08-31T02:47:52.370Z,22.98
2022-08-31T02:50:47.385Z,23.04
2022-08-31T02:53:16.612Z,23.10
2022-08-31T02:55:45.078Z,23.05
2022-08-31T02:58:13.955Z,23.20
2022-08-31T03:00:46.735Z,23.28
2022-08-31T03:03:15.671Z,23.25
2022-08-31T03:05:45.480Z,23.21
2022-08-31T03:08:13.476Z,23.34
2022-08-31T03:10:42.533Z,23.39
2022-08-31T03:13:10.104Z,23.39
2022-08-31T03:15:38.313Z,23.36
2022-08-31T03:18:07.247Z,23.24
2022-08-31T03:20:35.512Z,23.20
2022-08-31T03:23:04.457Z,23.13
2022-08-31T03:25:32.460Z,23.05
2022-08-31T03:28:01.001Z,23.14
2022-08-31T03:30:31.951Z,23.16
2022-08-31T03:33:07.588Z,23.13
2022-08-31T03:35:36.072Z,23.14
2022-08-31T03:38:05.528Z,23.21
2022-08-31T03:40:34.074Z,23.20
2022-08-31T03:43:03.071Z,23.15
2022-08-31T03:45:32.108Z,23.26
2022-08-31T03:48:00.544Z,23.00
2022-08-31T03:50:28.643Z,23.07
2022-08-31T03:53:05.054Z,23.05
2022-08-31T03:55:35.090Z,22.90
2022-08-31T03:58:04.988Z,22.93
2022-08-31T04:00:35.266Z,22.97
2022-08-31T04:03:07.840Z,22.95
2022-08-31T04:05:53.926Z,22.99
2022-08-31T04:08:25.358Z,23.00
2022-08-31T04:11:16.003Z,23.00
2022-08-31T04:14:03.192Z,22.93
2022-08-31T04:16:37.508Z,22.99
2022-08-31T04:19:24.925Z,23.03
2022-08-31T04:22:01.319Z,23.03
2022-08-31T04:24:30.228Z,23.04
2022-08-31T04:26:58.321Z,23.03
2022-08-31T04:29:25.998Z,23.01
2022-08-31T04:31:54.430Z,22.98
2022-08-31T04:34:22.769Z,22.87
2022-08-31T04:36:50.780Z,22.82
2022-08-31T04:39:19.035Z,22.76
2022-08-31T04:41:47.078Z,22.64
2022-08-31T04:44:19.643Z,22.64
2022-08-31T04:46:49.285Z,22.60
2022-08-31T04:49:17.347Z,22.41
2022-08-31T04:51:45.036Z,22.37
2022-08-31T04:54:14.269Z,22.47
2022-08-31T04:56:45.108Z,22.44
2022-08-31T04:59:18.924Z,22.54
2022-08-31T05:02:07.606Z,22.57
2022-08-31T05:05:00.919Z,22.41
2022-08-31T05:07:29.216Z,22.32
2022-08-31T05:09:59.819Z,22.39
2022-08-31T05:12:28.747Z,22.30
2022-08-31T05:14:56.780Z,22.39
2022-08-31T05:17:26.968Z,22.45
2022-08-31T05:19:55.087Z,22.49
2022-08-31T05:22:23.143Z,22.43
2022-08-31T05:24:53.689Z,22.42
2022-08-31T05:27:21.225Z,22.48
2022-08-31T05:29:49.083Z,22.60
2022-08-31T05:32:35.769Z,22.86
2022-08-31T05:35:07.662Z,22.94
2022-08-31T05:37:35.259Z,22.96
2022-08-31T05:40:03.157Z,23.22
2022-08-31T05:42:31.063Z,23.47
2022-08-31T05:44:58.991Z,23.59
2022-08-31T05:47:26.590Z,23.73
2022-08-31T05:49:54.942Z,23.90
2022-08-31T05:52:25.056Z,23.99
2022-08-31T05:54:54.661Z,23.85
2022-08-31T05:57:26.536Z,23.38
2022-08-31T05:59:56.390Z,23.33
2022-08-31T06:02:27.653Z,23.31
2022-08-31T06:04:58.748Z,23.33
2022-08-31T06:07:27.896Z,23.68
2022-08-31T06:10:01.404Z,24.01
2022-08-31T06:12:33.808Z,24.09
2022-08-31T06:15:02.611Z,23.81
2022-08-31T06:17:30.454Z,23.91
2022-08-31T06:19:58.911Z,24.07
2022-08-31T06:22:27.931Z,23.98
2022-08-31T06:24:57.061Z,23.81
2022-08-31T06:27:25.034Z,23.93
2022-08-31T06:29:55.184Z,23.96
2022-08-31T06:32:23.787Z,24.11
2022-08-31T06:34:58.581Z,24.28
2022-08-31T06:37:45.459Z,24.41
2022-08-31T06:40:31.517Z,24.01
2022-08-31T06:43:18.247Z,24.21
2022-08-31T06:46:02.375Z,24.36
2022-08-31T06:48:35.246Z,24.35
2022-08-31T06:51:03.868Z,24.26
2022-08-31T06:53:31.532Z,24.21
2022-08-31T06:56:16.505Z,24.25
2022-08-31T06:59:25.267Z,24.49
2022-08-31T07:02:13.819Z,24.91
2022-08-31T07:04:41.940Z,25.05
2022-08-31T07:07:11.642Z,24.97
2022-08-31T07:09:44.494Z,24.99
2022-08-31T07:12:12.539Z,24.93
2022-08-31T07:14:41.600Z,24.70
2022-08-31T07:17:18.127Z,24.69
2022-08-31T07:19:46.284Z,24.68
2022-08-31T07:22:16.167Z,24.68
2022-08-31T07:24:46.320Z,24.73
2022-08-31T07:27:18.589Z,24.97
2022-08-31T07:30:00.478Z,25.08
2022-08-31T07:32:32.833Z,25.13
2022-08-31T07:35:01.908Z,25.27
2022-08-31T07:37:50.995Z,25.33
2022-08-31T07:40:46.716Z,25.16
2022-08-31T07:43:15.720Z,25.04
2022-08-31T07:45:45.559Z,25.21
2022-08-31T07:48:20.976Z,25.39
2022-08-31T07:51:04.012Z,25.35
2022-08-31T07:53:42.770Z,25.33
2022-08-31T07:56:34.993Z,25.53
2022-08-31T07:59:12.485Z,25.51
2022-08-31T08:01:41.869Z,25.43
2022-08-31T08:04:13.270Z,25.67
2022-08-31T08:07:06.066Z,25.52
2022-08-31T08:09:55.381Z,25.48
2022-08-31T08:12:48.725Z,25.50
2022-08-31T08:15:35.388Z,25.21
2022-08-31T08:18:26.788Z,25.22
2022-08-31T08:20:59.186Z,25.35
2022-08-31T08:23:29.060Z,25.60
2022-08-31T08:26:21.354Z,25.86
2022-08-31T08:29:06.179Z,25.86
2022-08-31T08:31:37.494Z,26.10
2022-08-31T08:34:05.697Z,26.33
2022-08-31T08:36:36.837Z,26.31
2022-08-31T08:39:08.198Z,26.74
2022-08-31T08:41:39.385Z,27.07
2022-08-31T08:44:18.137Z,26.91
2022-08-31T08:46:54.227Z,26.88
2022-08-31T08:49:35.599Z,27.21
2022-08-31T08:52:11.819Z,27.14
2022-08-31T08:54:46.930Z,27.14
2022-08-31T08:57:27.089Z,27.48
2022-08-31T09:00:01.360Z,27.61
2022-08-31T09:03:01.279Z,28.01
2022-08-31T09:06:27.258Z,28.61
2022-08-31T09:09:24.830Z,28.72
2022-08-31T09:12:09.302Z,29.03
2022-08-31T09:15:11.410Z,29.48
2022-08-31T09:18:00.088Z,30.36
2022-08-31T09:20:32.654Z,30.84
2022-08-31T09:23:01.244Z,31.06
2022-08-31T09:25:37.426Z,30.77
2022-08-31T09:28:39.260Z,30.94
2022-08-31T09:31:07.164Z,30.47
2022-08-31T09:33:46.655Z,29.98
2022-08-31T09:36:17.692Z,30.64
2022-08-31T09:38:47.274Z,31.20
2022-08-31T09:41:33.590Z,31.50
2022-08-31T09:44:32.842Z,32.46
2022-08-31T09:47:06.677Z,32.34
2022-08-31T09:49:39.507Z,32.40
2022-08-31T09:52:42.050Z,31.11
2022-08-31T09:55:18.472Z,30.26
2022-08-31T09:57:59.235Z,29.74
2022-08-31T10:00:33.341Z,29.91
2022-08-31T10:03:21.331Z,29.56
2022-08-31T10:05:52.317Z,30.16
2022-08-31T10:08:38.667Z,30.33
2022-08-31T10:11:15.730Z,30.39
2022-08-31T10:13:57.320Z,30.51
2022-08-31T10:16:35.411Z,30.54
2022-08-31T10:19:22.729Z,30.39
2022-08-31T10:21:54.919Z,30.29
2022-08-31T10:24:34.672Z,31.31
2022-08-31T10:27:08.973Z,32.96
2022-08-31T10:29:46.224Z,34.06
2022-08-31T10:32:27.866Z,33.08
2022-08-31T10:35:20.567Z,33.97
2022-08-31T10:38:08.478Z,33.96
2022-08-31T10:41:13.628Z,34.76
2022-08-31T10:43:54.992Z,35.06
2022-08-31T10:46:22.686Z,35.08
2022-08-31T10:48:54.634Z,35.91
2022-08-31T10:51:37.653Z,34.93
2022-08-31T10:54:39.288Z,34.51
2022-08-31T10:57:07.298Z,35.26
2022-08-31T10:59:47.286Z,35.01
2022-08-31T11:02:40.797Z,34.35
2022-08-31T11:05:41.674Z,33.26
2022-08-31T11:08:12.247Z,33.90
2022-08-31T11:10:52.781Z,34.48
2022-08-31T11:13:49.649Z,35.03
2022-08-31T11:16:27.067Z,35.23
2022-08-31T11:19:36.270Z,33.96
2022-08-31T11:22:41.332Z,33.03
2022-08-31T11:25:44.368Z,32.49
2022-08-31T11:28:29.359Z,32.47
2022-08-31T11:30:57.743Z,32.87
2022-08-31T11:33:28.445Z,32.53
2022-08-31T11:36:07.098Z,32.63
2022-08-31T11:39:15.277Z,32.48
2022-08-31T11:41:48.005Z,32.88
2022-08-31T11:44:43.342Z,32.66
2022-08-31T11:47:34.757Z,32.28
2022-08-31T11:50:11.499Z,31.99
2022-08-31T11:52:43.493Z,31.73
2022-08-31T11:55:21.002Z,31.80
2022-08-31T11:58:07.651Z,31.44
2022-08-31T12:00:43.355Z,31.89
2022-08-31T12:03:35.563Z,32.36
2022-08-31T12:06:03.422Z,33.54
2022-08-31T12:08:42.531Z,33.40
2022-08-31T12:11:22.637Z,33.23
2022-08-31T12:14:01.363Z,33.26
2022-08-31T12:16:51.854Z,32.20
2022-08-31T12:19:50.286Z,32.75
2022-08-31T12:22:45.647Z,32.57
2022-08-31T12:25:29.647Z,32.53
2022-08-31T12:28:19.640Z,32.90
2022-08-31T12:31:04.005Z,33.25
2022-08-31T12:33:35.201Z,33.03
2022-08-31T12:36:16.043Z,33.77
2022-08-31T12:38:44.901Z,33.65
2022-08-31T12:41:14.960Z,33.62
2022-08-31T12:43:49.263Z,33.43
2022-08-31T12:46:33.070Z,35.93
2022-08-31T12:49:07.714Z,37.47
2022-08-31T12:51:47.284Z,37.80
2022-08-31T12:54:37.228Z,36.61
2022-08-31T12:57:26.758Z,35.20
2022-08-31T13:00:32.488Z,32.75
2022-08-31T13:03:17.267Z,32.90
2022-08-31T13:06:13.505Z,32.51
2022-08-31T13:08:47.768Z,32.50
2022-08-31T13:11:22.870Z,32.44
2022-08-31T13:13:52.822Z,33.52
2022-08-31T13:16:21.441Z,36.04
2022-08-31T13:18:57.664Z,37.56
2022-08-31T13:21:27.069Z,40.09
2022-08-31T13:24:07.379Z,40.40
2022-08-31T13:26:36.831Z,40.91
2022-08-31T13:29:08.401Z,41.23
2022-08-31T13:31:56.251Z,42.05
2022-08-31T13:34:25.010Z,42.38
2022-08-31T13:36:59.743Z,42.18
2022-08-31T13:39:35.011Z,41.95
2022-08-31T13:42:10.446Z,42.49
2022-08-31T13:44:44.260Z,43.83
2022-08-31T13:47:27.592Z,44.08
2022-08-31T13:50:21.924Z,39.87
2022-08-31T13:55:48.803Z,43.20
2022-08-31T13:58:32.274Z,43.71
2022-08-31T14:01:25.823Z,44.12
2022-08-31T14:03:59.770Z,42.85
2022-08-31T14:06:34.812Z,43.33
2022-08-31T14:09:17.039Z,44.78
2022-08-31T14:11:54.088Z,45.47
2022-08-31T14:14:39.852Z,42.35
2022-08-31T14:17:16.467Z,41.05
2022-08-31T14:19:45.498Z,42.55
2022-08-31T14:22:30.731Z,42.94
2022-08-31T14:25:00.759Z,42.39
2022-08-31T14:27:30.205Z,40.03
2022-08-31T14:29:58.592Z,37.78
2022-08-31T14:32:27.612Z,35.51
2022-08-31T14:34:57.782Z,34.32
2022-08-31T14:37:30.184Z,34.33
2022-08-31T14:40:05.612Z,36.35
2022-08-31T14:42:39.575Z,36.43
2022-08-31T14:45:21.678Z,34.69
2022-08-31T14:47:52.533Z,33.69
2022-08-31T14:50:25.432Z,33.42
2022-08-31T14:52:55.097Z,33.11
2022-08-31T14:55:24.462Z,32.57
2022-08-31T14:57:59.779Z,32.49
2022-08-31T15:00:29.063Z,32.59
2022-08-31T15:02:56.840Z,32.40
2022-08-31T15:05:25.936Z,32.02
2022-08-31T15:07:55.024Z,32.56
2022-08-31T15:10:25.775Z,33.25
2022-08-31T15:12:55.804Z,34.22
2022-08-31T15:15:23.627Z,36.50
2022-08-31T15:17:52.896Z,38.34
2022-08-31T15:20:22.901Z,37.69
2022-08-31T15:22:51.472Z,38.32
2022-08-31T15:25:22.377Z,38.53
2022-08-31T15:27:49.908Z,38.45
2022-08-31T15:30:20.232Z,38.38
2022-08-31T15:32:48.873Z,39.08
2022-08-31T15:35:23.476Z,38.53
2022-08-31T15:37:58.739Z,39.21
2022-08-31T15:40:35.464Z,39.08
2022-08-31T15:43:09.588Z,37.55
2022-08-31T15:45:38.030Z,36.94
2022-08-31T15:48:24.921Z,38.07
2022-08-31T15:50:58.945Z,39.71
2022-08-31T15:53:29.528Z,39.66
2022-08-31T15:56:06.330Z,39.58
2022-08-31T15:58:38.238Z,39.57
2022-08-31T16:01:16.194Z,39.06
2022-08-31T16:03:50.945Z,38.88
2022-08-31T16:06:21.806Z,38.58
2022-08-31T16:08:55.339Z,37.92
2022-08-31T16:11:31.075Z,38.10
2022-08-31T16:13:59.904Z,38.73
2022-08-31T16:16:35.952Z,37.70
2022-08-31T16:19:05.647Z,37.36
2022-08-31T16:21:37.767Z,36.25
2022-08-31T16:24:09.758Z,34.45
2022-08-31T16:26:41.158Z,34.63
2022-08-31T16:29:15.752Z,34.69
2022-08-31T16:31:45.007Z,34.58
2022-08-31T16:34:13.216Z,33.03
2022-08-31T16:36:42.294Z,32.59
2022-08-31T16:39:11.844Z,32.40
2022-08-31T16:41:39.450Z,31.99
2022-08-31T16:44:19.721Z,31.82
2022-08-31T16:46:48.403Z,31.53
2022-08-31T16:49:36.480Z,30.69
2022-08-31T16:52:09.825Z,29.70
2022-08-31T16:54:44.449Z,28.92
2022-08-31T16:57:15.139Z,28.63
2022-08-31T16:59:43.943Z,27.76
2022-08-31T17:02:13.234Z,27.46
2022-08-31T17:04:52.163Z,27.87
2022-08-31T17:07:23.390Z,27.47
2022-08-31T17:09:56.570Z,27.27
2022-08-31T17:12:26.221Z,27.56
2022-08-31T17:14:54.986Z,27.30
2022-08-31T17:17:25.505Z,27.35
2022-08-31T17:19:56.201Z,27.58
2022-08-31T17:22:31.784Z,27.66
2022-08-31T17:25:04.027Z,27.08
2022-08-31T17:27:33.643Z,27.35
2022-08-31T17:30:05.374Z,27.05
2022-08-31T17:32:39.310Z,26.87
2022-08-31T17:35:18.319Z,26.81
2022-08-31T17:37:46.686Z,26.53
2022-08-31T17:40:14.593Z,26.59
2022-08-31T17:42:42.300Z,26.64
2022-08-31T17:45:10.481Z,26.50
2022-08-31T17:47:38.284Z,26.42
2022-08-31T17:50:07.149Z,26.29
2022-08-31T17:52:35.192Z,25.99
2022-08-31T17:55:04.121Z,25.87
2022-08-31T17:57:32.207Z,25.78
2022-08-31T17:59:59.863Z,25.80
2022-08-31T18:02:34.704Z,25.74
2022-08-31T18:05:09.583Z,25.55
2022-08-31T18:07:41.050Z,25.62
2022-08-31T18:10:09.880Z,25.81
2022-08-31T18:12:41.315Z,25.99
2022-08-31T18:15:11.880Z,26.10
2022-08-31T18:17:40.095Z,25.92
2022-08-31T18:20:08.584Z,26.06
2022-08-31T18:22:36.766Z,25.89
2022-08-31T18:25:07.883Z,25.81
2022-08-31T18:27:35.858Z,25.82
2022-08-31T18:30:05.074Z,25.95
2022-08-31T18:32:36.925Z,25.89
2022-08-31T18:35:13.693Z,25.82
2022-08-31T18:37:42.111Z,25.70
2022-08-31T18:40:29.978Z,25.51
2022-08-31T18:43:16.196Z,25.76
2022-08-31T18:45:49.085Z,25.56
2022-08-31T18:48:26.043Z,25.39
2022-08-31T18:50:56.923Z,25.37
2022-08-31T18:53:28.496Z,25.23
2022-08-31T18:56:08.958Z,25.21
2022-08-31T18:58:39.084Z,25.40
2022-08-31T19:01:11.610Z,25.53
2022-08-31T19:03:41.249Z,25.08
2022-08-31T19:06:17.047Z,25.13
2022-08-31T19:08:45.590Z,25.33
2022-08-31T19:11:13.421Z,25.31
2022-08-31T19:13:41.741Z,25.34
2022-08-31T19:16:17.792Z,25.29
2022-08-31T19:18:46.329Z,25.38
2022-08-31T19:21:19.045Z,25.40
2022-08-31T19:23:48.369Z,25.16
2022-08-31T19:26:38.902Z,25.21
2022-08-31T19:29:09.299Z,25.31
2022-08-31T19:31:40.941Z,25.40
2022-08-31T19:34:09.485Z,25.47
2022-08-31T19:36:40.952Z,25.48
2022-08-31T19:39:12.026Z,25.44
2022-08-31T19:41:49.401Z,25.05
2022-08-31T19:44:18.358Z,24.73
2022-08-31T19:46:55.099Z,24.50
2022-08-31T19:49:23.700Z,24.41
2022-08-31T19:51:57.443Z,24.51
2022-08-31T19:54:31.309Z,24.67
2022-08-31T19:56:59.924Z,24.78
2022-08-31T19:59:28.114Z,24.78
2022-08-31T20:01:59.465Z,25.02
2022-08-31T20:04:29.789Z,24.88
2022-08-31T20:06:57.915Z,24.85
2022-08-31T20:09:26.509Z,24.79
2022-08-31T20:11:56.829Z,24.86
2022-08-31T20:14:25.073Z,24.88
2022-08-31T20:16:53.237Z,25.01
2022-08-31T20:19:27.496Z,24.89
2022-08-31T20:22:07.940Z,25.08
2022-08-31T20:24:43.843Z,25.08
2022-08-31T20:27:16.486Z,24.97
2022-08-31T20:29:46.536Z,25.06
2022-08-31T20:32:14.197Z,25.09
2022-08-31T20:34:43.617Z,25.14
2022-08-31T20:37:11.367Z,25.30
2022-08-31T20:39:42.013Z,25.36
2022-08-31T20:42:10.504Z,25.35
2022-08-31T20:44:38.410Z,25.21
2022-08-31T20:47:28.030Z,24.78
2022-08-31T20:50:00.938Z,24.55
2022-08-31T20:52:32.019Z,24.32
2022-08-31T20:55:01.873Z,24.29
2022-08-31T20:57:32.784Z,24.43
2022-08-31T21:00:05.175Z,24.37
2022-08-31T21:02:34.824Z,24.54
2022-08-31T21:05:33.912Z,24.48
2022-08-31T21:07:57.245Z,24.48
2022-08-31T21:10:37.230Z,24.46
2022-08-31T21:13:09.406Z,24.57
2022-08-31T21:15:45.912Z,24.61
2022-08-31T21:18:17.698Z,24.76
2022-08-31T21:20:46.639Z,24.81
2022-08-31T21:23:14.420Z,24.80
2022-08-31T21:25:46.249Z,24.65
2022-08-31T21:28:17.851Z,24.72
2022-08-31T21:30:49.305Z,24.49
2022-08-31T21:33:17.740Z,24.49
2022-08-31T21:35:45.809Z,24.43
2022-08-31T21:38:14.189Z,24.58
2022-08-31T21:40:49.359Z,24.65
2022-08-31T21:43:17.002Z,24.45
2022-08-31T21:45:44.675Z,24.47
2022-08-31T21:48:12.619Z,24.52
2022-08-31T21:50:40.197Z,24.58
2022-08-31T21:53:07.783Z,24.53
2022-08-31T21:55:38.708Z,24.57
2022-08-31T21:58:06.852Z,24.53
2022-08-31T22:00:35.041Z,24.29
2022-08-31T22:03:03.358Z,24.35
2022-08-31T22:05:31.806Z,24.23
2022-08-31T22:08:01.819Z,24.22
2022-08-31T22:10:30.872Z,24.26
2022-08-31T22:12:58.542Z,24.16
2022-08-31T22:15:27.494Z,24.19
2022-08-31T22:18:58.365Z,24.11
2022-08-31T22:20:42.789Z,24.12
2022-08-31T22:23:11.428Z,24.16
2022-08-31T22:25:39.709Z,24.18
2022-08-31T22:28:07.543Z,24.24
2022-08-31T22:30:36.639Z,24.24
2022-08-31T22:33:05.153Z,24.29
2022-08-31T22:35:39.086Z,24.41
2022-08-31T22:38:08.751Z,24.25
2022-08-31T22:40:39.590Z,24.28
2022-08-31T22:43:09.864Z,24.18
2022-08-31T22:45:48.397Z,24.15
2022-08-31T22:48:16.796Z,24.09
2022-08-31T22:50:45.389Z,24.09
2022-08-31T22:53:14.304Z,24.04
2022-08-31T22:55:43.204Z,24.01
2022-08-31T22:58:12.580Z,24.03
2022-08-31T23:00:40.564Z,24.13
2022-08-31T23:03:14.093Z,24.26
2022-08-31T23:05:43.724Z,24.16
2022-08-31T23:08:13.994Z,24.18
2022-08-31T23:10:43.000Z,24.24
2022-08-31T23:13:11.516Z,24.12
2022-08-31T23:15:40.343Z,24.07
2022-08-31T23:18:10.113Z,24.08
2022-08-31T23:20:38.628Z,24.31
2022-08-31T23:23:06.158Z,24.39
2022-08-31T23:25:35.411Z,24.43
2022-08-31T23:28:03.245Z,24.44
2022-08-31T23:30:31.288Z,24.49
2022-08-31T23:33:02.200Z,24.44
2022-08-31T23:35:30.440Z,24.17
2022-08-31T23:38:00.713Z,24.19
2022-08-31T23:40:31.002Z,24.30
2022-08-31T23:42:59.064Z,24.18
2022-08-31T23:45:27.066Z,24.37
2022-08-31T23:47:55.084Z,24.39
2022-08-31T23:50:22.674Z,24.39
2022-08-31T23:52:52.472Z,24.34
2022-08-31T23:55:22.278Z,24.28
2022-08-31T23:57:50.484Z,24.33
